Time,TemperatureF,DewpointF,PressureIn,WindDirection,WindDirectionDegrees,WindSpeedMPH,WindSpeedGustMPH,Humidity,HourlyPrecipIn,Conditions,Clouds,dailyrainin,SoftwareType,DateUTC
2013-01-15 00:01:00,39.3,28.2,30.22,NNW,346,1.0,7.0,64,0.00,,CLR,0.00,VWS V13.01,2013-01-15 05:01:00,
2013-01-15 00:03:00,39.2,27.7,30.22,NW,304,1.0,2.0,63,0.00,,CLR,0.00,VWS V13.01,2013-01-15 05:03:00,
2013-01-15 00:04:00,39.2,28.1,30.22,NW,304,0.0,2.0,64,0.00,,CLR,0.00,VWS V13.01,2013-01-15 05:04:00,
2013-01-15 00:09:00,39.1,28.0,30.22,NNW,327,0.0,4.0,64,0.00,,CLR,0.00,VWS V13.01,2013-01-15 05:09:00,
2013-01-15 00:15:00,39.1,28.0,30.22,NW,304,0.0,4.0,64,0.00,,CLR,0.00,VWS V13.01,2013-01-15 05:15:00,
2013-01-15 00:20:00,39.0,27.9,30.23,NW,304,0.0,4.0,64,0.00,,CLR,0.00,VWS V13.01,2013-01-15 05:20:00,
2013-01-15 00:25:00,38.9,27.8,30.22,NW,304,0.0,4.0,64,0.00,,CLR,0.00,VWS V13.01,2013-01-15 05:25:00,
2013-01-15 00:30:00,38.9,27.8,30.23,NNW,327,0.0,4.0,64,0.00,,CLR,0.00,VWS V13.01,2013-01-15 05:30:00,
2013-01-15 00:35:00,38.8,27.7,30.23,NNW,327,0.0,1.0,64,0.00,,CLR,0.00,VWS V13.01,2013-01-15 05:35:00,
2013-01-15 00:40:00,38.7,28.0,30.23,NNW,327,0.0,2.0,65,0.00,,CLR,0.00,VWS V13.01,2013-01-15 05:40:00,
2013-01-15 00:45:00,38.7,28.0,30.22,NNW,327,0.0,2.0,65,0.00,,BKN120,0.00,VWS V13.01,2013-01-15 05:45:00,
2013-01-15 00:50:00,38.6,27.9,30.23,NNW,327,0.0,2.0,65,0.00,,BKN120,0.00,VWS V13.01,2013-01-15 05:50:00,
2013-01-15 00:55:00,38.6,27.9,30.23,NNW,327,0.0,2.0,65,0.00,,BKN120,0.00,VWS V13.01,2013-01-15 05:55:00,
2013-01-15 01:00:00,38.7,28.3,30.23,NNW,327,0.0,2.0,66,0.00,,BKN120,0.00,VWS V13.01,2013-01-15 06:00:00,
2013-01-15 01:05:00,38.6,28.2,30.23,NNW,327,0.0,0.0,66,0.00,,BKN120,0.00,VWS V13.01,2013-01-15 06:05:00,
2013-01-15 01:10:00,38.6,28.6,30.23,NNW,327,0.0,1.0,67,0.00,,BKN120,0.00,VWS V13.01,2013-01-15 06:10:00,
2013-01-15 01:15:00,38.5,28.5,30.23,NNW,327,0.0,1.0,67,0.00,,BKN120,0.00,VWS V13.01,2013-01-15 06:15:00,
2013-01-15 01:20:00,38.4,28.0,30.23,NNW,327,0.0,1.0,66,0.00,,BKN120,0.00,VWS V13.01,2013-01-15 06:20:00,
2013-01-15 01:25:00,38.3,28.0,30.23,NNW,327,0.0,1.0,66,0.00,,BKN120,0.00,VWS V13.01,2013-01-15 06:25:00,
2013-01-15 01:30:00,38.2,27.9,30.22,NNW,327,0.0,1.0,66,0.00,,BKN120,0.00,VWS V13.01,2013-01-15 06:30:00,
2013-01-15 01:35:00,38.2,27.9,30.23,NNW,343,4.0,5.0,66,0.00,,BKN120,0.00,VWS V13.01,2013-01-15 06:35:00,
2013-01-15 01:40:00,38.2,27.9,30.23,WNW,288,2.0,5.0,66,0.00,,BKN120,0.00,VWS V13.01,2013-01-15 06:40:00,
2013-01-15 01:46:00,38.1,27.4,30.25,NW,304,0.0,5.0,65,0.00,,OVC100,0.00,VWS V13.01,2013-01-15 06:46:00,
2013-01-15 01:51:00,38.1,27.4,30.24,WNW,298,1.0,6.0,65,0.00,,OVC100,0.00,VWS V13.01,2013-01-15 06:51:00,
2013-01-15 01:56:00,38.1,27.8,30.26,NNW,331,1.0,6.0,66,0.00,,OVC100,0.00,VWS V13.01,2013-01-15 06:56:00,
2013-01-15 02:01:00,38.0,27.3,30.23,NW,310,0.0,6.0,65,0.00,,OVC100,0.00,VWS V13.01,2013-01-15 07:01:00,
2013-01-15 02:06:00,38.0,27.7,30.25,NNW,333,0.0,3.0,66,0.00,,OVC100,0.00,VWS V13.01,2013-01-15 07:06:00,
2013-01-15 02:11:00,37.8,27.1,30.24,WNW,290,0.0,4.0,65,0.00,,OVC100,0.00,VWS V13.01,2013-01-15 07:11:00,
2013-01-15 02:16:00,37.7,27.0,30.24,WNW,290,0.0,4.0,65,0.00,,OVC100,0.00,VWS V13.01,2013-01-15 07:16:00,
2013-01-15 02:21:00,37.5,27.2,30.23,WNW,290,0.0,4.0,66,0.00,,OVC100,0.00,VWS V13.01,2013-01-15 07:21:00,
2013-01-15 02:26:00,37.5,27.2,30.24,WNW,290,0.0,4.0,66,0.00,,OVC100,0.00,VWS V13.01,2013-01-15 07:26:00,
2013-01-15 02:31:00,37.2,26.5,30.23,NW,308,0.0,0.0,65,0.00,,OVC100,0.00,VWS V13.01,2013-01-15 07:31:00,
2013-01-15 02:36:00,37.2,27.3,30.22,NW,308,0.0,0.0,67,0.00,,OVC100,0.00,VWS V13.01,2013-01-15 07:36:00,
2013-01-15 02:42:00,37.0,26.7,30.23,NW,308,0.0,1.0,66,0.00,,OVC100,0.00,VWS V13.01,2013-01-15 07:42:00,
2013-01-15 02:47:00,37.0,26.7,30.23,NW,308,0.0,1.0,66,0.00,,OVC100,0.00,VWS V13.01,2013-01-15 07:47:00,
2013-01-15 02:52:00,37.0,27.1,30.23,NW,308,0.0,1.0,67,0.00,,OVC100,0.00,VWS V13.01,2013-01-15 07:52:00,
2013-01-15 02:57:00,37.0,27.4,30.21,NW,308,0.0,1.0,68,0.00,,OVC100,0.00,VWS V13.01,2013-01-15 07:57:00,
2013-01-15 03:02:00,37.0,27.4,30.21,NW,308,0.0,0.0,68,0.00,,OVC100,0.00,VWS V13.01,2013-01-15 08:02:00,
2013-01-15 03:07:00,36.9,27.3,30.21,NW,308,0.0,0.0,68,0.00,,OVC100,0.00,VWS V13.01,2013-01-15 08:07:00,
2013-01-15 03:12:00,36.8,27.2,30.22,NW,308,0.0,0.0,68,0.00,,OVC100,0.00,VWS V13.01,2013-01-15 08:12:00,
2013-01-15 03:17:00,36.7,26.8,30.21,NW,308,0.0,2.0,67,0.00,,OVC100,0.00,VWS V13.01,2013-01-15 08:17:00,
2013-01-15 03:22:00,36.7,26.8,30.21,NW,308,0.0,2.0,67,0.00,,OVC100,0.00,VWS V13.01,2013-01-15 08:22:00,
2013-01-15 03:27:00,36.7,26.8,30.20,NW,308,0.0,2.0,67,0.00,,OVC100,0.00,VWS V13.01,2013-01-15 08:27:00,
2013-01-15 03:32:00,36.6,26.3,30.21,NW,308,0.0,0.0,66,0.00,,OVC100,0.00,VWS V13.01,2013-01-15 08:32:00,
2013-01-15 03:37:00,36.7,26.8,30.21,NW,308,0.0,0.0,67,0.00,,OVC100,0.00,VWS V13.01,2013-01-15 08:37:00,
2013-01-15 03:42:00,36.7,26.8,30.20,NW,308,1.0,1.0,67,0.00,,OVC100,0.00,VWS V13.01,2013-01-15 08:42:00,
2013-01-15 03:47:00,36.5,26.2,30.21,NW,308,0.0,2.0,66,0.00,,FEW085,0.00,VWS V13.01,2013-01-15 08:47:00,
2013-01-15 03:53:00,36.6,26.7,30.21,NW,308,0.0,2.0,67,0.00,,FEW085,0.00,VWS V13.01,2013-01-15 08:53:00,
2013-01-15 03:58:00,36.6,26.7,30.21,NW,308,0.0,2.0,67,0.00,,FEW085,0.00,VWS V13.01,2013-01-15 08:58:00,
2013-01-15 04:03:00,36.6,26.7,30.20,NW,308,0.0,0.0,67,0.00,,FEW085,0.00,VWS V13.01,2013-01-15 09:03:00,
2013-01-15 04:08:00,36.5,26.6,30.20,NW,308,0.0,1.0,67,0.00,,FEW085,0.00,VWS V13.01,2013-01-15 09:08:00,
2013-01-15 04:13:00,36.5,26.6,30.21,NW,308,0.0,1.0,67,0.00,,FEW085,0.00,VWS V13.01,2013-01-15 09:13:00,
2013-01-15 04:18:00,36.5,26.6,30.20,NW,308,0.0,1.0,67,0.00,,FEW085,0.00,VWS V13.01,2013-01-15 09:18:00,
2013-01-15 04:23:00,36.5,27.0,30.19,NW,308,0.0,1.0,68,0.00,,FEW085,0.00,VWS V13.01,2013-01-15 09:23:00,
2013-01-15 04:28:00,36.5,27.0,30.19,NW,308,0.0,1.0,68,0.00,,FEW085,0.00,VWS V13.01,2013-01-15 09:28:00,
2013-01-15 04:33:00,36.4,26.5,30.19,NW,308,0.0,0.0,67,0.00,,FEW085,0.00,VWS V13.01,2013-01-15 09:33:00,
2013-01-15 04:38:00,36.3,26.4,30.19,NW,308,0.0,2.0,67,0.00,,FEW085,0.00,VWS V13.01,2013-01-15 09:38:00,
2013-01-15 04:43:00,36.3,26.4,30.19,NW,308,0.0,3.0,67,0.00,,FEW085,0.00,VWS V13.01,2013-01-15 09:43:00,
2013-01-15 04:48:00,36.2,26.3,30.19,NW,308,0.0,3.0,67,0.00,,BKN085,0.00,VWS V13.01,2013-01-15 09:48:00,
2013-01-15 04:53:00,36.2,26.3,30.19,NW,308,0.0,3.0,67,0.00,,BKN085,0.00,VWS V13.01,2013-01-15 09:53:00,
2013-01-15 04:58:00,36.1,26.2,30.20,NW,308,0.0,3.0,67,0.00,,BKN085,0.00,VWS V13.01,2013-01-15 09:58:00,
2013-01-15 05:03:00,36.0,26.1,30.20,NW,308,0.0,0.0,67,0.00,,BKN085,0.00,VWS V13.01,2013-01-15 10:03:00,
2013-01-15 05:08:00,36.0,26.5,30.20,NW,308,0.0,2.0,68,0.00,,BKN085,0.00,VWS V13.01,2013-01-15 10:08:00,
2013-01-15 05:13:00,35.8,26.3,30.20,NW,308,0.0,2.0,68,0.00,,BKN085,0.00,VWS V13.01,2013-01-15 10:13:00,
2013-01-15 05:18:00,35.6,26.1,30.20,NW,308,1.0,2.0,68,0.00,,BKN085,0.00,VWS V13.01,2013-01-15 10:18:00,
2013-01-15 05:23:00,35.4,25.9,30.20,NW,308,0.0,2.0,68,0.00,,BKN085,0.00,VWS V13.01,2013-01-15 10:23:00,
2013-01-15 05:28:00,35.2,25.7,30.20,NW,308,0.0,2.0,68,0.00,,BKN085,0.00,VWS V13.01,2013-01-15 10:28:00,
2013-01-15 05:34:00,35.0,25.5,30.20,NW,308,0.0,2.0,68,0.00,,BKN085,0.00,VWS V13.01,2013-01-15 10:34:00,
2013-01-15 05:39:00,34.9,25.4,30.20,NW,308,0.0,2.0,68,0.00,,BKN085,0.00,VWS V13.01,2013-01-15 10:39:00,
2013-01-15 05:44:00,34.7,25.2,30.20,NW,308,0.0,2.0,68,0.00,,BKN085,0.00,VWS V13.01,2013-01-15 10:44:00,
2013-01-15 05:49:00,34.4,25.0,30.20,NW,308,0.0,2.0,68,0.00,,BKN095,0.00,VWS V13.01,2013-01-15 10:49:00,
2013-01-15 05:54:00,34.4,25.3,30.20,NW,308,0.0,2.0,69,0.00,,BKN095,0.00,VWS V13.01,2013-01-15 10:54:00,
2013-01-15 05:59:00,34.4,25.3,30.20,NW,308,0.0,2.0,69,0.00,,BKN095,0.00,VWS V13.01,2013-01-15 10:59:00,
2013-01-15 06:04:00,34.1,25.0,30.20,NW,308,0.0,1.0,69,0.00,,BKN095,0.00,VWS V13.01,2013-01-15 11:04:00,
2013-01-15 06:09:00,33.8,24.7,30.20,NW,308,0.0,1.0,69,0.00,,BKN095,0.00,VWS V13.01,2013-01-15 11:09:00,
2013-01-15 06:14:00,33.4,24.3,30.21,NW,308,0.0,1.0,69,0.00,,BKN095,0.00,VWS V13.01,2013-01-15 11:14:00,
2013-01-15 06:19:00,33.0,24.0,30.22,NW,308,0.0,1.0,69,0.00,,BKN095,0.00,VWS V13.01,2013-01-15 11:19:00,
2013-01-15 06:24:00,32.8,24.1,30.22,NW,308,0.0,1.0,70,0.00,,BKN095,0.00,VWS V13.01,2013-01-15 11:24:00,
2013-01-15 06:29:00,32.6,23.9,30.22,NW,308,0.0,1.0,70,0.00,,BKN095,0.00,VWS V13.01,2013-01-15 11:29:00,
2013-01-15 06:34:00,32.5,23.8,30.23,NW,308,1.0,1.0,70,0.00,,BKN095,0.00,VWS V13.01,2013-01-15 11:34:00,
2013-01-15 06:39:00,32.4,23.7,30.24,NW,308,0.0,2.0,70,0.00,,BKN095,0.00,VWS V13.01,2013-01-15 11:39:00,
2013-01-15 06:44:00,32.3,23.6,30.23,NW,313,0.0,2.0,70,0.00,,BKN095,0.00,VWS V13.01,2013-01-15 11:44:00,
2013-01-15 06:49:00,32.3,23.6,30.24,NNW,327,0.0,4.0,70,0.00,,CLR,0.00,VWS V13.01,2013-01-15 11:49:00,
2013-01-15 06:54:00,32.3,23.6,30.24,NW,317,1.0,4.0,70,0.00,,CLR,0.00,VWS V13.01,2013-01-15 11:54:00,
2013-01-15 06:59:00,32.3,23.6,30.24,NW,317,1.0,4.0,70,0.00,,CLR,0.00,VWS V13.01,2013-01-15 11:59:00,
2013-01-15 07:04:00,32.3,23.6,30.24,NW,317,0.0,1.0,70,0.00,,CLR,0.00,VWS V13.01,2013-01-15 12:04:00,
2013-01-15 07:09:00,32.3,23.6,30.25,NW,310,1.0,5.0,70,0.00,,CLR,0.00,VWS V13.01,2013-01-15 12:09:00,
2013-01-15 07:14:00,32.4,23.7,30.25,NW,311,0.0,5.0,70,0.00,,CLR,0.00,VWS V13.01,2013-01-15 12:14:00,
2013-01-15 07:19:00,32.3,23.6,30.25,NW,311,0.0,5.0,70,0.00,,CLR,0.00,VWS V13.01,2013-01-15 12:19:00,
2013-01-15 07:25:00,32.2,23.5,30.25,NW,311,0.0,5.0,70,0.00,,CLR,0.00,VWS V13.01,2013-01-15 12:25:00,
2013-01-15 07:30:00,32.1,23.4,30.26,NW,311,0.0,5.0,70,0.00,,CLR,0.00,VWS V13.01,2013-01-15 12:30:00,
2013-01-15 07:35:00,32.0,23.3,30.26,NW,311,0.0,0.0,70,0.00,,CLR,0.00,VWS V13.01,2013-01-15 12:35:00,
2013-01-15 07:40:00,31.7,23.0,30.27,NW,311,0.0,0.0,70,0.00,,CLR,0.00,VWS V13.01,2013-01-15 12:40:00,
2013-01-15 07:45:00,31.5,22.9,30.27,NW,311,0.0,0.0,70,0.00,,CLR,0.00,VWS V13.01,2013-01-15 12:45:00,
2013-01-15 07:50:00,31.2,22.6,30.26,NW,311,0.0,0.0,70,0.00,,CLR,0.00,VWS V13.01,2013-01-15 12:50:00,
2013-01-15 07:55:00,31.0,22.4,30.27,NW,311,0.0,0.0,70,0.00,,CLR,0.00,VWS V13.01,2013-01-15 12:55:00,
2013-01-15 08:00:00,30.7,22.1,30.27,NW,311,0.0,0.0,70,0.00,,CLR,0.00,VWS V13.01,2013-01-15 13:00:00,
2013-01-15 08:05:00,30.5,21.9,30.27,NW,311,0.0,0.0,70,0.00,,CLR,0.00,VWS V13.01,2013-01-15 13:05:00,
2013-01-15 08:10:00,30.4,21.8,30.28,NW,311,0.0,1.0,70,0.00,,CLR,0.00,VWS V13.01,2013-01-15 13:10:00,
2013-01-15 08:15:00,30.3,21.7,30.27,NW,311,0.0,2.0,70,0.00,,CLR,0.00,VWS V13.01,2013-01-15 13:15:00,
2013-01-15 08:20:00,30.4,21.8,30.27,NW,311,0.0,2.0,70,0.00,,CLR,0.00,VWS V13.01,2013-01-15 13:20:00,
2013-01-15 08:25:00,30.5,21.9,30.27,NW,311,0.0,2.0,70,0.00,,CLR,0.00,VWS V13.01,2013-01-15 13:25:00,
2013-01-15 08:30:00,30.6,22.0,30.27,NW,311,0.0,2.0,70,0.00,,CLR,0.00,VWS V13.01,2013-01-15 13:30:00,
2013-01-15 08:35:00,30.9,22.3,30.27,NW,311,0.0,2.0,70,0.00,,CLR,0.00,VWS V13.01,2013-01-15 13:35:00,
2013-01-15 08:40:00,31.2,22.6,30.27,NW,317,0.0,2.0,70,0.00,,CLR,0.00,VWS V13.01,2013-01-15 13:40:00,
2013-01-15 08:45:00,31.5,22.9,30.28,NNW,340,0.0,3.0,70,0.00,,CLR,0.00,VWS V13.01,2013-01-15 13:45:00,
2013-01-15 08:50:00,32.0,23.3,30.27,NW,313,0.0,3.0,70,0.00,,CLR,0.00,VWS V13.01,2013-01-15 13:50:00,
2013-01-15 08:55:00,32.4,23.7,30.28,North,350,0.0,3.0,70,0.00,,CLR,0.00,VWS V13.01,2013-01-15 13:55:00,
2013-01-15 09:00:00,32.8,24.1,30.27,North,350,0.0,3.0,70,0.00,,CLR,0.00,VWS V13.01,2013-01-15 14:00:00,
2013-01-15 09:05:00,34.0,24.9,30.27,NNW,335,3.0,3.0,69,0.00,,CLR,0.00,VWS V13.01,2013-01-15 14:05:00,
2013-01-15 09:10:00,34.9,25.4,30.27,ENE,59,3.0,4.0,68,0.00,,CLR,0.00,VWS V13.01,2013-01-15 14:10:00,
2013-01-15 09:15:00,35.3,25.5,30.28,ENE,59,0.0,4.0,67,0.00,,CLR,0.00,VWS V13.01,2013-01-15 14:15:00,
2013-01-15 09:20:00,35.4,25.5,30.27,ENE,59,0.0,4.0,67,0.00,,CLR,0.00,VWS V13.01,2013-01-15 14:20:00,
2013-01-15 09:26:00,35.7,25.8,30.28,North,9,1.0,4.0,67,0.00,,CLR,0.00,VWS V13.01,2013-01-15 14:26:00,
2013-01-15 09:31:00,35.9,26.0,30.28,NNW,336,1.0,4.0,67,0.00,,CLR,0.00,VWS V13.01,2013-01-15 14:31:00,
2013-01-15 09:36:00,36.0,25.8,30.28,North,360,0.0,2.0,66,0.00,,CLR,0.00,VWS V13.01,2013-01-15 14:36:00,
2013-01-15 09:41:00,36.2,26.0,30.28,NW,317,0.0,2.0,66,0.00,,CLR,0.00,VWS V13.01,2013-01-15 14:41:00,
2013-01-15 09:46:00,36.4,26.1,30.28,NW,317,0.0,2.0,66,0.00,,CLR,0.00,VWS V13.01,2013-01-15 14:46:00,
2013-01-15 09:51:00,36.7,26.4,30.28,NNE,15,1.0,3.0,66,0.00,,CLR,0.00,VWS V13.01,2013-01-15 14:51:00,
2013-01-15 09:56:00,37.5,26.5,30.28,NNE,15,3.0,3.0,64,0.00,,CLR,0.00,VWS V13.01,2013-01-15 14:56:00,
2013-01-15 10:01:00,37.9,26.5,30.28,NE,40,1.0,4.0,63,0.00,,CLR,0.00,VWS V13.01,2013-01-15 15:01:00,
2013-01-15 10:06:00,38.1,25.9,30.28,NE,46,0.0,3.0,61,0.00,,CLR,0.00,VWS V13.01,2013-01-15 15:06:00,
2013-01-15 10:11:00,38.4,26.5,30.28,North,5,1.0,3.0,62,0.00,,CLR,0.00,VWS V13.01,2013-01-15 15:11:00,
2013-01-15 10:16:00,38.4,26.1,30.28,NE,52,1.0,5.0,61,0.00,,CLR,0.00,VWS V13.01,2013-01-15 15:16:00,
2013-01-15 10:21:00,38.2,26.0,30.29,NNW,344,0.0,5.0,61,0.00,,CLR,0.00,VWS V13.01,2013-01-15 15:21:00,
2013-01-15 10:26:00,38.2,26.0,30.29,NNW,329,0.0,7.0,61,0.00,,CLR,0.00,VWS V13.01,2013-01-15 15:26:00,
2013-01-15 10:31:00,38.4,25.7,30.29,NE,40,0.0,0.0,60,0.00,,CLR,0.00,VWS V13.01,2013-01-15 15:31:00,
2013-01-15 10:36:00,38.4,25.7,30.29,NNE,33,4.0,4.0,60,0.00,,CLR,0.00,VWS V13.01,2013-01-15 15:36:00,
2013-01-15 10:41:00,38.4,25.7,30.28,North,5,0.0,4.0,60,0.00,,CLR,0.00,VWS V13.01,2013-01-15 15:41:00,
2013-01-15 10:46:00,38.5,25.0,30.28,NE,52,0.0,4.0,58,0.00,,BKN034,0.00,VWS V13.01,2013-01-15 15:46:00,
2013-01-15 10:51:00,38.7,26.0,30.27,NE,52,1.0,4.0,60,0.00,,BKN034,0.00,VWS V13.01,2013-01-15 15:51:00,
2013-01-15 10:56:00,39.0,25.9,30.26,WNW,289,1.0,4.0,59,0.00,,BKN034,0.00,VWS V13.01,2013-01-15 15:56:00,
2013-01-15 11:01:00,38.8,25.7,30.26,NE,34,1.0,1.0,59,0.00,,BKN034,0.00,VWS V13.01,2013-01-15 16:01:00,
2013-01-15 11:07:00,38.8,26.1,30.26,NNE,32,1.0,4.0,60,0.00,,BKN034,0.00,VWS V13.01,2013-01-15 16:07:00,
2013-01-15 11:12:00,38.7,25.6,30.25,NNE,31,0.0,4.0,59,0.00,,BKN034,0.00,VWS V13.01,2013-01-15 16:12:00,
2013-01-15 11:17:00,38.7,26.0,30.25,NNE,22,2.0,4.0,60,0.00,,BKN034,0.00,VWS V13.01,2013-01-15 16:17:00,
2013-01-15 11:22:00,38.5,24.6,30.25,NE,51,1.0,4.0,57,0.00,,BKN034,0.00,VWS V13.01,2013-01-15 16:22:00,
2013-01-15 11:27:00,38.4,25.3,30.25,NE,42,2.0,4.0,59,0.00,,BKN034,0.00,VWS V13.01,2013-01-15 16:27:00,
2013-01-15 11:32:00,38.4,25.3,30.24,NNW,346,2.0,2.0,59,0.00,,BKN034,0.00,VWS V13.01,2013-01-15 16:32:00,
2013-01-15 11:37:00,38.5,25.0,30.24,NNE,29,0.0,4.0,58,0.00,,BKN034,0.00,VWS V13.01,2013-01-15 16:37:00,
2013-01-15 11:42:00,38.5,25.0,30.24,NNE,29,0.0,4.0,58,0.00,,BKN034,0.00,VWS V13.01,2013-01-15 16:42:00,
2013-01-15 11:47:00,38.8,25.3,30.24,NNE,29,0.0,4.0,58,0.00,,BKN036,0.00,VWS V13.01,2013-01-15 16:47:00,
2013-01-15 11:52:00,39.4,25.9,30.25,NNE,20,1.0,4.0,58,0.00,,BKN036,0.00,VWS V13.01,2013-01-15 16:52:00,
2013-01-15 11:57:00,39.6,25.6,30.24,NNE,20,1.0,4.0,57,0.00,,BKN036,0.00,VWS V13.01,2013-01-15 16:57:00,
2013-01-15 12:02:00,39.5,26.0,30.25,NNE,26,0.0,1.0,58,0.00,,BKN036,0.00,VWS V13.01,2013-01-15 17:02:00,
2013-01-15 12:07:00,39.6,25.6,30.24,NNE,26,0.0,2.0,57,0.00,,BKN036,0.00,VWS V13.01,2013-01-15 17:07:00,
2013-01-15 12:12:00,39.5,26.0,30.23,NNE,22,0.0,3.0,58,0.00,,BKN036,0.00,VWS V13.01,2013-01-15 17:12:00,
2013-01-15 12:17:00,39.6,26.1,30.23,North,9,0.0,3.0,58,0.00,,BKN036,0.00,VWS V13.01,2013-01-15 17:17:00,
2013-01-15 12:22:00,39.7,25.7,30.23,NNE,23,0.0,3.0,57,0.00,,BKN036,0.00,VWS V13.01,2013-01-15 17:22:00,
2013-01-15 12:27:00,39.7,26.6,30.24,NNE,22,0.0,3.0,59,0.00,,BKN036,0.00,VWS V13.01,2013-01-15 17:27:00,
2013-01-15 12:32:00,39.7,25.3,30.24,NNE,18,0.0,2.0,56,0.00,,BKN036,0.00,VWS V13.01,2013-01-15 17:32:00,
2013-01-15 12:37:00,39.6,26.1,30.24,NNE,18,1.0,2.0,58,0.00,,BKN036,0.00,VWS V13.01,2013-01-15 17:37:00,
2013-01-15 12:42:00,39.7,25.7,30.24,NNE,18,1.0,2.0,57,0.00,,BKN036,0.00,VWS V13.01,2013-01-15 17:42:00,
2013-01-15 12:47:00,39.6,26.5,30.23,NNE,20,0.0,2.0,59,0.00,,OVC036,0.00,VWS V13.01,2013-01-15 17:47:00,
2013-01-15 12:52:00,39.7,25.3,30.23,NNE,20,0.0,2.0,56,0.00,,OVC036,0.00,VWS V13.01,2013-01-15 17:52:00,
2013-01-15 12:57:00,39.7,25.7,30.23,North,9,0.0,2.0,57,0.00,,OVC036,0.00,VWS V13.01,2013-01-15 17:57:00,
2013-01-15 13:02:00,39.8,27.1,30.23,NW,319,3.0,3.0,60,0.00,,OVC036,0.00,VWS V13.01,2013-01-15 18:02:00,
2013-01-15 13:07:00,39.9,26.3,30.23,NW,319,0.0,3.0,58,0.00,,OVC036,0.00,VWS V13.01,2013-01-15 18:07:00,
2013-01-15 13:12:00,40.1,26.1,30.23,NW,319,0.0,3.0,57,0.00,,OVC036,0.00,VWS V13.01,2013-01-15 18:12:00,
2013-01-15 13:17:00,40.2,26.2,30.24,NW,320,0.0,3.0,57,0.00,,OVC036,0.00,VWS V13.01,2013-01-15 18:17:00,
2013-01-15 13:22:00,40.2,25.8,30.24,NNW,327,0.0,3.0,56,0.00,,OVC036,0.00,VWS V13.01,2013-01-15 18:22:00,
2013-01-15 13:27:00,40.2,25.8,30.24,NNW,327,0.0,3.0,56,0.00,,OVC036,0.00,VWS V13.01,2013-01-15 18:27:00,
2013-01-15 13:32:00,40.1,24.8,30.24,NNW,327,0.0,1.0,54,0.00,,OVC036,0.00,VWS V13.01,2013-01-15 18:32:00,
2013-01-15 13:37:00,40.0,25.6,30.24,NNW,327,0.0,1.0,56,0.00,,OVC036,0.00,VWS V13.01,2013-01-15 18:37:00,
2013-01-15 13:42:00,39.9,26.3,30.24,NNW,327,0.0,2.0,58,0.00,,OVC036,0.00,VWS V13.01,2013-01-15 18:42:00,
2013-01-15 13:47:00,39.9,25.9,30.24,NW,306,0.0,4.0,57,0.00,,OVC036,0.00,VWS V13.01,2013-01-15 18:47:00,
2013-01-15 13:52:00,39.9,25.9,30.24,NW,306,0.0,4.0,57,0.00,,OVC036,0.00,VWS V13.01,2013-01-15 18:52:00,
2013-01-15 13:57:00,39.8,25.8,30.23,NW,316,0.0,4.0,57,0.00,,OVC036,0.00,VWS V13.01,2013-01-15 18:57:00,
2013-01-15 14:02:00,39.9,25.9,30.23,NW,309,0.0,0.0,57,0.00,,OVC036,0.00,VWS V13.01,2013-01-15 19:02:00,
2013-01-15 14:07:00,40.0,25.6,30.23,NW,309,0.0,1.0,56,0.00,,OVC036,0.00,VWS V13.01,2013-01-15 19:07:00,
2013-01-15 14:12:00,40.0,26.0,30.23,NW,318,0.0,4.0,57,0.00,,OVC036,0.00,VWS V13.01,2013-01-15 19:12:00,
2013-01-15 14:17:00,40.1,25.2,30.22,NW,318,0.0,4.0,55,0.00,,OVC036,0.00,VWS V13.01,2013-01-15 19:17:00,
2013-01-15 14:22:00,40.1,26.1,30.23,NW,315,0.0,4.0,57,0.00,,OVC036,0.00,VWS V13.01,2013-01-15 19:22:00,
2013-01-15 14:27:00,40.0,25.1,30.23,NW,315,0.0,4.0,55,0.00,,OVC036,0.00,VWS V13.01,2013-01-15 19:27:00,
2013-01-15 14:33:00,40.0,26.0,30.22,NW,315,0.0,0.0,57,0.00,,OVC036,0.00,VWS V13.01,2013-01-15 19:33:00,
2013-01-15 14:38:00,39.9,25.9,30.22,NW,315,0.0,1.0,57,0.00,,OVC036,0.00,VWS V13.01,2013-01-15 19:38:00,
2013-01-15 14:43:00,39.8,25.8,30.22,NW,315,0.0,1.0,57,0.00,,OVC036,0.00,VWS V13.01,2013-01-15 19:43:00,
2013-01-15 14:48:00,39.8,25.8,30.22,NW,315,0.0,1.0,57,0.00,,OVC250,0.00,VWS V13.01,2013-01-15 19:48:00,
2013-01-15 14:53:00,39.7,26.1,30.22,NW,315,0.0,1.0,58,0.00,,OVC250,0.00,VWS V13.01,2013-01-15 19:53:00,
2013-01-15 14:58:00,39.7,25.7,30.23,NW,311,0.0,1.0,57,0.00,,OVC250,0.00,VWS V13.01,2013-01-15 19:58:00,
2013-01-15 15:03:00,39.7,26.1,30.22,NW,311,0.0,0.0,58,0.00,,OVC250,0.00,VWS V13.01,2013-01-15 20:03:00,
2013-01-15 15:08:00,39.6,26.1,30.23,NW,311,0.0,0.0,58,0.00,,OVC250,0.00,VWS V13.01,2013-01-15 20:08:00,
2013-01-15 15:13:00,39.6,26.5,30.22,NW,311,0.0,0.0,59,0.00,,OVC250,0.00,VWS V13.01,2013-01-15 20:13:00,
2013-01-15 15:18:00,39.6,25.6,30.23,NW,311,0.0,1.0,57,0.00,,OVC250,0.00,VWS V13.01,2013-01-15 20:18:00,
2013-01-15 15:23:00,39.6,25.6,30.23,NW,311,0.0,1.0,57,0.00,,OVC250,0.00,VWS V13.01,2013-01-15 20:23:00,
2013-01-15 15:28:00,39.6,25.6,30.22,NW,311,0.0,1.0,57,0.00,,OVC250,0.00,VWS V13.01,2013-01-15 20:28:00,
2013-01-15 15:33:00,39.5,26.0,30.21,NW,311,0.0,0.0,58,0.00,,OVC250,0.00,VWS V13.01,2013-01-15 20:33:00,
2013-01-15 15:38:00,39.4,25.0,30.21,NW,311,0.0,1.0,56,0.00,,OVC250,0.00,VWS V13.01,2013-01-15 20:38:00,
2013-01-15 15:44:00,39.4,24.6,30.21,NW,311,0.0,1.0,55,0.00,,OVC250,0.00,VWS V13.01,2013-01-15 20:44:00,
2013-01-15 15:49:00,39.3,24.9,30.20,NW,311,0.0,1.0,56,0.00,,OVC250,0.00,VWS V13.01,2013-01-15 20:49:00,
2013-01-15 15:54:00,39.2,24.8,30.21,NW,311,0.0,1.0,56,0.00,,OVC250,0.00,VWS V13.01,2013-01-15 20:54:00,
2013-01-15 15:59:00,39.2,25.7,30.22,NW,311,0.0,1.0,58,0.00,,OVC250,0.00,VWS V13.01,2013-01-15 20:59:00,
2013-01-15 16:04:00,39.0,25.5,30.22,NW,311,0.0,0.0,58,0.00,,CLR,0.00,VWS V13.01,2013-01-15 21:04:00,
2013-01-15 16:09:00,38.9,25.8,30.22,NW,311,0.0,0.0,59,0.00,,CLR,0.00,VWS V13.01,2013-01-15 21:09:00,
2013-01-15 16:14:00,38.8,25.3,30.22,NW,311,0.0,0.0,58,0.00,,CLR,0.00,VWS V13.01,2013-01-15 21:14:00,
2013-01-15 16:19:00,38.6,25.9,30.22,NW,311,0.0,0.0,60,0.00,,CLR,0.00,VWS V13.01,2013-01-15 21:19:00,
2013-01-15 16:24:00,38.5,25.8,30.22,NW,311,0.0,1.0,60,0.00,,CLR,0.00,VWS V13.01,2013-01-15 21:24:00,
2013-01-15 16:29:00,38.2,26.0,30.22,NW,311,0.0,1.0,61,0.00,,CLR,0.00,VWS V13.01,2013-01-15 21:29:00,
2013-01-15 16:34:00,38.0,25.8,30.22,NW,311,0.0,0.0,61,0.00,,CLR,0.00,VWS V13.01,2013-01-15 21:34:00,
2013-01-15 16:39:00,37.8,25.6,30.22,NW,311,0.0,0.0,61,0.00,,CLR,0.00,VWS V13.01,2013-01-15 21:39:00,
2013-01-15 16:44:00,37.5,25.7,30.23,NW,311,0.0,0.0,62,0.00,,CLR,0.00,VWS V13.01,2013-01-15 21:44:00,
2013-01-15 16:49:00,37.3,25.9,30.23,NW,311,0.0,0.0,63,0.00,,CLR,0.00,VWS V13.01,2013-01-15 21:49:00,
2013-01-15 16:54:00,37.0,25.2,30.23,NW,311,0.0,0.0,62,0.00,,CLR,0.00,VWS V13.01,2013-01-15 21:54:00,
2013-01-15 16:59:00,36.7,24.9,30.24,NW,311,0.0,0.0,62,0.00,,CLR,0.00,VWS V13.01,2013-01-15 21:59:00,
2013-01-15 17:04:00,36.5,25.1,30.23,NW,311,0.0,0.0,63,0.00,,CLR,0.00,VWS V13.01,2013-01-15 22:04:00,
2013-01-15 17:10:00,36.2,24.8,30.23,NW,311,0.0,0.0,63,0.00,,CLR,0.00,VWS V13.01,2013-01-15 22:10:00,
2013-01-15 17:15:00,36.0,24.6,30.23,NW,311,0.0,0.0,63,0.00,,CLR,0.00,VWS V13.01,2013-01-15 22:15:00,
2013-01-15 17:20:00,35.8,24.8,30.24,NW,311,0.0,0.0,64,0.00,,CLR,0.00,VWS V13.01,2013-01-15 22:20:00,
2013-01-15 17:25:00,35.6,25.0,30.24,NW,311,0.0,0.0,65,0.00,,CLR,0.00,VWS V13.01,2013-01-15 22:25:00,
2013-01-15 17:30:00,35.4,24.8,30.24,NW,311,0.0,0.0,65,0.00,,CLR,0.00,VWS V13.01,2013-01-15 22:30:00,
2013-01-15 17:35:00,35.2,24.6,30.24,NW,311,0.0,0.0,65,0.00,,CLR,0.00,VWS V13.01,2013-01-15 22:35:00,
2013-01-15 17:40:00,35.0,24.4,30.24,NW,311,0.0,0.0,65,0.00,,CLR,0.00,VWS V13.01,2013-01-15 22:40:00,
2013-01-15 17:45:00,35.0,25.2,30.23,NW,311,0.0,1.0,67,0.00,,CLR,0.00,VWS V13.01,2013-01-15 22:45:00,
2013-01-15 17:50:00,34.8,25.0,30.23,NW,311,0.0,1.0,67,0.00,,CLR,0.00,VWS V13.01,2013-01-15 22:50:00,
2013-01-15 17:55:00,34.7,24.9,30.23,NW,311,0.0,1.0,67,0.00,,CLR,0.00,VWS V13.01,2013-01-15 22:55:00,
2013-01-15 18:00:00,34.7,24.9,30.24,NW,311,0.0,1.0,67,0.00,,CLR,0.00,VWS V13.01,2013-01-15 23:00:00,
2013-01-15 18:05:00,34.7,25.2,30.24,NW,311,0.0,0.0,68,0.00,,CLR,0.00,VWS V13.01,2013-01-15 23:05:00,
2013-01-15 18:10:00,34.4,24.6,30.23,NW,311,0.0,0.0,67,0.00,,CLR,0.00,VWS V13.01,2013-01-15 23:10:00,
2013-01-15 18:15:00,34.4,24.6,30.24,NW,311,0.0,0.0,67,0.00,,CLR,0.00,VWS V13.01,2013-01-15 23:15:00,
2013-01-15 18:20:00,34.3,24.9,30.24,NW,311,0.0,0.0,68,0.00,,CLR,0.00,VWS V13.01,2013-01-15 23:20:00,
2013-01-15 18:26:00,34.0,24.6,30.24,NW,311,0.0,1.0,68,0.00,,CLR,0.00,VWS V13.01,2013-01-15 23:26:00,
2013-01-15 18:31:00,33.8,24.7,30.24,NW,311,0.0,1.0,69,0.00,,CLR,0.00,VWS V13.01,2013-01-15 23:31:00,
2013-01-15 18:36:00,33.6,24.5,30.25,NW,311,0.0,0.0,69,0.00,,CLR,0.00,VWS V13.01,2013-01-15 23:36:00,
2013-01-15 18:41:00,33.4,24.3,30.25,NW,311,0.0,0.0,69,0.00,,CLR,0.00,VWS V13.01,2013-01-15 23:41:00,
2013-01-15 18:46:00,33.2,24.1,30.25,NW,311,0.0,0.0,69,0.00,,CLR,0.00,VWS V13.01,2013-01-15 23:46:00,
2013-01-15 18:51:00,33.1,24.0,30.25,NW,311,0.0,0.0,69,0.00,,CLR,0.00,VWS V13.01,2013-01-15 23:51:00,
2013-01-15 18:56:00,32.9,23.9,30.25,NW,311,0.0,1.0,69,0.00,,CLR,0.00,VWS V13.01,2013-01-15 23:56:00,
2013-01-15 19:01:00,32.8,23.8,30.25,NW,311,0.0,1.0,69,0.00,,CLR,0.00,VWS V13.01,2013-01-16 00:01:00,
2013-01-15 19:06:00,32.7,24.0,30.25,NW,311,0.0,0.0,70,0.00,,CLR,0.00,VWS V13.01,2013-01-16 00:06:00,
2013-01-15 19:11:00,32.6,23.9,30.25,NW,311,0.0,0.0,70,0.00,,CLR,0.00,VWS V13.01,2013-01-16 00:11:00,
2013-01-15 19:16:00,32.4,23.7,30.25,NW,311,0.0,1.0,70,0.00,,CLR,0.00,VWS V13.01,2013-01-16 00:16:00,
2013-01-15 19:21:00,32.2,23.5,30.25,NW,311,0.0,1.0,70,0.00,,CLR,0.00,VWS V13.01,2013-01-16 00:21:00,
2013-01-15 19:26:00,32.0,23.3,30.25,NW,311,0.0,1.0,70,0.00,,CLR,0.00,VWS V13.01,2013-01-16 00:26:00,
2013-01-15 19:31:00,31.7,23.0,30.25,NW,311,0.0,0.0,70,0.00,,CLR,0.00,VWS V13.01,2013-01-16 00:31:00,
2013-01-15 19:36:00,31.6,23.0,30.24,NW,311,0.0,0.0,70,0.00,,CLR,0.00,VWS V13.01,2013-01-16 00:36:00,
2013-01-15 19:41:00,31.4,22.8,30.24,NW,311,0.0,0.0,70,0.00,,CLR,0.00,VWS V13.01,2013-01-16 00:41:00,
2013-01-15 19:46:00,31.2,22.6,30.25,NW,311,0.0,0.0,70,0.00,,CLR,0.00,VWS V13.01,2013-01-16 00:46:00,
2013-01-15 19:51:00,30.9,22.3,30.25,NW,311,0.0,0.0,70,0.00,,CLR,0.00,VWS V13.01,2013-01-16 00:51:00,
2013-01-15 19:57:00,30.6,22.0,30.25,NW,311,0.0,0.0,70,0.00,,CLR,0.00,VWS V13.01,2013-01-16 00:57:00,
2013-01-15 20:02:00,30.5,21.9,30.25,NW,311,0.0,0.0,70,0.00,,CLR,0.00,VWS V13.01,2013-01-16 01:02:00,
2013-01-15 20:07:00,30.4,21.8,30.24,NW,311,0.0,0.0,70,0.00,,CLR,0.00,VWS V13.01,2013-01-16 01:07:00,
2013-01-15 20:12:00,30.4,21.8,30.24,NW,311,0.0,0.0,70,0.00,,CLR,0.00,VWS V13.01,2013-01-16 01:12:00,
2013-01-15 20:17:00,30.4,21.5,30.24,NW,311,0.0,0.0,69,0.00,,CLR,0.00,VWS V13.01,2013-01-16 01:17:00,
2013-01-15 20:22:00,30.4,21.8,30.24,NW,311,0.0,0.0,70,0.00,,CLR,0.00,VWS V13.01,2013-01-16 01:22:00,
2013-01-15 20:27:00,30.5,21.9,30.24,NW,311,0.0,0.0,70,0.00,,CLR,0.00,VWS V13.01,2013-01-16 01:27:00,
2013-01-15 20:32:00,30.5,21.9,30.24,NW,311,0.0,0.0,70,0.00,,CLR,0.00,VWS V13.01,2013-01-16 01:32:00,
2013-01-15 20:37:00,30.6,22.0,30.24,NW,311,0.0,0.0,70,0.00,,CLR,0.00,VWS V13.01,2013-01-16 01:37:00,
2013-01-15 20:42:00,30.7,21.8,30.23,NW,311,0.0,0.0,69,0.00,,CLR,0.00,VWS V13.01,2013-01-16 01:42:00,
2013-01-15 20:47:00,30.7,21.8,30.23,NW,311,0.0,0.0,69,0.00,,CLR,0.00,VWS V13.01,2013-01-16 01:47:00,
2013-01-15 20:52:00,30.8,21.9,30.23,NW,311,0.0,0.0,69,0.00,,CLR,0.00,VWS V13.01,2013-01-16 01:52:00,
2013-01-15 20:57:00,30.8,21.9,30.23,NW,311,0.0,0.0,69,0.00,,CLR,0.00,VWS V13.01,2013-01-16 01:57:00,
2013-01-15 21:02:00,30.8,22.2,30.23,NW,311,0.0,0.0,70,0.00,,CLR,0.00,VWS V13.01,2013-01-16 02:02:00,
2013-01-15 21:07:00,30.9,21.9,30.23,NW,311,0.0,0.0,69,0.00,,CLR,0.00,VWS V13.01,2013-01-16 02:07:00,
2013-01-15 21:12:00,31.0,22.0,30.23,NW,311,0.0,0.0,69,0.00,,CLR,0.00,VWS V13.01,2013-01-16 02:12:00,
2013-01-15 21:17:00,31.0,22.0,30.23,NW,311,0.0,0.0,69,0.00,,CLR,0.00,VWS V13.01,2013-01-16 02:17:00,
2013-01-15 21:23:00,31.0,22.0,30.23,NW,311,0.0,0.0,69,0.00,,CLR,0.00,VWS V13.01,2013-01-16 02:23:00,
2013-01-15 21:28:00,31.0,22.0,30.23,NW,311,0.0,0.0,69,0.00,,CLR,0.00,VWS V13.01,2013-01-16 02:28:00,
2013-01-15 21:33:00,30.9,21.9,30.24,NW,311,0.0,0.0,69,0.00,,CLR,0.00,VWS V13.01,2013-01-16 02:33:00,
2013-01-15 21:38:00,30.9,21.9,30.24,NW,311,0.0,0.0,69,0.00,,CLR,0.00,VWS V13.01,2013-01-16 02:38:00,
2013-01-15 21:43:00,30.9,21.9,30.23,NW,311,0.0,0.0,69,0.00,,CLR,0.00,VWS V13.01,2013-01-16 02:43:00,
2013-01-15 21:48:00,30.9,21.9,30.23,NW,311,0.0,0.0,69,0.00,,CLR,0.00,VWS V13.01,2013-01-16 02:48:00,
2013-01-15 21:53:00,30.8,21.5,30.23,NW,311,0.0,0.0,68,0.00,,CLR,0.00,VWS V13.01,2013-01-16 02:53:00,
2013-01-15 21:58:00,30.7,21.4,30.23,NW,311,0.0,0.0,68,0.00,,CLR,0.00,VWS V13.01,2013-01-16 02:58:00,
2013-01-15 22:03:00,30.6,21.3,30.23,NW,311,0.0,0.0,68,0.00,,CLR,0.00,VWS V13.01,2013-01-16 03:03:00,
2013-01-15 22:08:00,30.5,21.2,30.22,NW,311,0.0,0.0,68,0.00,,CLR,0.00,VWS V13.01,2013-01-16 03:08:00,
2013-01-15 22:13:00,30.5,21.2,30.22,NW,311,0.0,0.0,68,0.00,,CLR,0.00,VWS V13.01,2013-01-16 03:13:00,
2013-01-15 22:18:00,30.5,21.2,30.22,NW,311,0.0,0.0,68,0.00,,CLR,0.00,VWS V13.01,2013-01-16 03:18:00,
2013-01-15 22:23:00,30.5,21.2,30.22,NW,311,0.0,0.0,68,0.00,,CLR,0.00,VWS V13.01,2013-01-16 03:23:00,
2013-01-15 22:28:00,30.4,21.1,30.21,NW,311,0.0,0.0,68,0.00,,CLR,0.00,VWS V13.01,2013-01-16 03:28:00,
2013-01-15 22:33:00,30.4,21.1,30.22,NW,311,0.0,0.0,68,0.00,,CLR,0.00,VWS V13.01,2013-01-16 03:33:00,
2013-01-15 22:38:00,30.4,20.8,30.21,NW,311,0.0,0.0,67,0.00,,CLR,0.00,VWS V13.01,2013-01-16 03:38:00,
2013-01-15 22:43:00,30.4,20.8,30.21,NW,311,0.0,0.0,67,0.00,,CLR,0.00,VWS V13.01,2013-01-16 03:43:00,
2013-01-15 22:48:00,30.3,20.7,30.21,NW,311,0.0,0.0,67,0.00,,CLR,0.00,VWS V13.01,2013-01-16 03:48:00,
2013-01-15 22:53:00,30.3,20.7,30.21,NW,311,0.0,0.0,67,0.00,,CLR,0.00,VWS V13.01,2013-01-16 03:53:00,
2013-01-15 22:58:00,30.3,20.7,30.21,NW,311,0.0,0.0,67,0.00,,CLR,0.00,VWS V13.01,2013-01-16 03:58:00,
2013-01-15 23:04:00,30.3,20.7,30.22,NW,311,0.0,0.0,67,0.00,,CLR,0.00,VWS V13.01,2013-01-16 04:04:00,
2013-01-15 23:09:00,30.3,20.7,30.22,NW,311,0.0,0.0,67,0.00,,CLR,0.00,VWS V13.01,2013-01-16 04:09:00,
2013-01-15 23:14:00,30.3,20.7,30.23,NW,311,0.0,0.0,67,0.00,,CLR,0.00,VWS V13.01,2013-01-16 04:14:00,
2013-01-15 23:19:00,30.2,20.6,30.23,NW,311,0.0,0.0,67,0.00,,CLR,0.00,VWS V13.01,2013-01-16 04:19:00,
2013-01-15 23:24:00,30.3,20.7,30.23,NW,311,0.0,0.0,67,0.00,,CLR,0.00,VWS V13.01,2013-01-16 04:24:00,
2013-01-15 23:29:00,30.2,20.2,30.22,NW,311,0.0,0.0,66,0.00,,CLR,0.00,VWS V13.01,2013-01-16 04:29:00,
2013-01-15 23:34:00,30.2,20.2,30.22,NW,311,0.0,0.0,66,0.00,,CLR,0.00,VWS V13.01,2013-01-16 04:34:00,
2013-01-15 23:39:00,30.3,20.3,30.22,NW,311,0.0,0.0,66,0.00,,CLR,0.00,VWS V13.01,2013-01-16 04:39:00,
2013-01-15 23:44:00,30.3,20.3,30.22,NW,311,0.0,0.0,66,0.00,,CLR,0.00,VWS V13.01,2013-01-16 04:44:00,
2013-01-15 23:49:00,30.4,20.1,30.21,NW,311,0.0,0.0,65,0.00,,CLR,0.00,VWS V13.01,2013-01-16 04:49:00,
2013-01-15 23:54:00,30.3,20.0,30.22,NW,311,0.0,0.0,65,0.00,,CLR,0.00,VWS V13.01,2013-01-16 04:54:00,
2013-01-15 23:59:00,30.2,19.9,30.21,NW,311,0.0,0.0,65,0.00,,CLR,0.00,VWS V13.01,2013-01-16 04:59:00,